createdAt,value
2018-12-14T00:02:03.534Z,23.33
2018-12-14T00:04:32.850Z,21.23
2018-12-14T00:07:02.250Z,23.20
2018-12-14T00:09:32.017Z,29.53
2018-12-14T00:12:01.210Z,34.80
2018-12-14T00:14:30.376Z,34.63
2018-12-14T00:16:59.893Z,36.90
2018-12-14T00:19:29.069Z,37.73
2018-12-14T00:21:58.457Z,39.20
2018-12-14T00:24:27.778Z,38.27
2018-12-14T00:26:57.063Z,39.17
2018-12-14T00:29:26.305Z,38.10
2018-12-14T00:31:55.598Z,36.07
2018-12-14T00:34:24.870Z,35.57
2018-12-14T00:36:54.079Z,33.47
2018-12-14T00:39:23.410Z,33.93
2018-12-14T00:41:52.403Z,34.23
2018-12-14T00:44:21.350Z,34.50
2018-12-14T00:46:50.550Z,34.13
2018-12-14T00:49:19.561Z,33.33
2018-12-14T00:51:48.559Z,33.13
2018-12-14T00:54:17.878Z,33.73
2018-12-14T00:56:46.898Z,33.60
2018-12-14T00:59:15.942Z,33.63
2018-12-14T01:01:45.322Z,30.80
2018-12-14T01:04:14.527Z,32.40
2018-12-14T01:06:43.567Z,26.37
2018-12-14T01:09:12.664Z,24.30
2018-12-14T01:11:41.774Z,23.60
2018-12-14T01:14:10.802Z,23.07
2018-12-14T01:16:39.929Z,25.77
2018-12-14T01:19:08.947Z,25.77
2018-12-14T01:21:38.127Z,27.43
2018-12-14T01:24:07.182Z,25.93
2018-12-14T01:26:36.158Z,28.23
2018-12-14T01:29:05.169Z,29.97
2018-12-14T01:31:34.188Z,29.43
2018-12-14T01:34:03.247Z,27.73
2018-12-14T01:36:32.326Z,27.67
2018-12-14T01:39:01.610Z,26.03
2018-12-14T01:41:30.746Z,27.23
2018-12-14T01:43:59.725Z,27.03
2018-12-14T01:46:28.826Z,25.10
2018-12-14T01:48:57.910Z,25.00
2018-12-14T01:51:27.023Z,24.97
2018-12-14T01:53:56.470Z,26.77
2018-12-14T01:56:25.489Z,24.60
2018-12-14T01:58:54.526Z,24.60
2018-12-14T02:01:23.557Z,23.60
2018-12-14T02:03:52.533Z,24.10
2018-12-14T02:06:21.560Z,24.10
2018-12-14T02:08:50.723Z,24.73
2018-12-14T02:13:52.181Z,23.23
2018-12-14T02:16:21.351Z,20.93
2018-12-14T02:18:50.940Z,20.13
2018-12-14T02:21:20.313Z,21.00
2018-12-14T02:23:49.353Z,20.77
2018-12-14T02:26:18.329Z,21.33
2018-12-14T02:28:47.448Z,25.27
2018-12-14T02:31:16.746Z,24.97
2018-12-14T02:33:45.798Z,24.57
2018-12-14T02:36:14.870Z,26.80
2018-12-14T02:38:44.071Z,27.57
2018-12-14T02:41:13.138Z,28.67
2018-12-14T02:43:42.243Z,29.33
2018-12-14T02:46:11.346Z,29.23
2018-12-14T02:48:40.325Z,27.23
2018-12-14T02:51:09.386Z,29.53
2018-12-14T02:53:38.467Z,29.97
2018-12-14T02:56:07.731Z,29.53
2018-12-14T02:58:37.325Z,30.70
2018-12-14T03:01:06.302Z,29.87
2018-12-14T03:03:35.858Z,29.33
2018-12-14T03:06:05.341Z,29.90
2018-12-14T03:08:34.406Z,29.37
2018-12-14T03:11:03.969Z,29.30
2018-12-14T03:13:34.705Z,27.57
2018-12-14T03:16:03.850Z,95.20
2018-12-14T03:18:33.009Z,30.23
2018-12-14T03:21:02.008Z,30.70
2018-12-14T03:23:31.196Z,29.03
2018-12-14T03:26:00.278Z,29.23
2018-12-14T03:28:29.414Z,29.63
2018-12-14T03:30:58.523Z,30.40
2018-12-14T03:33:27.805Z,28.77
2018-12-14T03:35:57.011Z,30.43
2018-12-14T03:38:26.158Z,31.63
2018-12-14T03:40:55.312Z,32.30
2018-12-14T03:43:24.568Z,31.03
2018-12-14T03:45:54.707Z,30.57
2018-12-14T03:48:23.781Z,28.73
2018-12-14T03:50:53.005Z,31.33
2018-12-14T03:53:21.984Z,31.40
2018-12-14T03:55:50.981Z,29.83
2018-12-14T03:58:21.022Z,29.27
2018-12-14T04:00:50.025Z,29.87
2018-12-14T04:03:19.160Z,30.07
2018-12-14T04:05:48.339Z,28.77
2018-12-14T04:08:17.424Z,28.67
2018-12-14T04:10:46.648Z,30.97
2018-12-14T04:13:15.759Z,31.90
2018-12-14T04:15:45.499Z,32.73
2018-12-14T04:18:14.628Z,29.93
2018-12-14T04:20:44.161Z,28.53
2018-12-14T04:23:13.239Z,28.57
2018-12-14T04:25:42.436Z,28.13
2018-12-14T04:28:11.571Z,29.23
2018-12-14T04:30:40.596Z,27.67
2018-12-14T04:33:09.690Z,28.27
2018-12-14T04:35:38.906Z,30.47
2018-12-14T04:38:07.974Z,30.13
2018-12-14T04:40:37.040Z,30.33
2018-12-14T04:43:06.574Z,28.43
2018-12-14T04:45:35.566Z,30.87
2018-12-14T04:48:04.624Z,29.33
2018-12-14T04:50:33.697Z,29.37
2018-12-14T04:53:02.725Z,30.70
2018-12-14T04:55:31.689Z,31.13
2018-12-14T04:58:00.840Z,31.07
2018-12-14T05:00:29.930Z,33.00
2018-12-14T05:02:59.044Z,32.23
2018-12-14T05:05:28.283Z,31.40
2018-12-14T05:07:57.285Z,28.37
2018-12-14T05:10:26.217Z,31.80
2018-12-14T05:12:56.317Z,31.37
2018-12-14T05:15:24.625Z,31.50
2018-12-14T05:17:53.884Z,31.83
2018-12-14T05:20:23.069Z,30.87
2018-12-14T05:22:52.165Z,32.00
2018-12-14T05:25:21.199Z,17.90
2018-12-14T05:27:50.256Z,31.43
2018-12-14T05:30:19.475Z,30.93
2018-12-14T05:32:49.539Z,23.47
2018-12-14T05:35:18.630Z,28.70
2018-12-14T05:37:47.962Z,26.63
2018-12-14T05:40:16.994Z,28.03
2018-12-14T05:42:46.071Z,27.73
2018-12-14T05:45:15.168Z,25.17
2018-12-14T05:47:44.398Z,25.87
2018-12-14T05:50:13.387Z,25.00
2018-12-14T05:52:42.393Z,25.80
2018-12-14T05:55:11.533Z,24.87
2018-12-14T05:57:41.003Z,25.80
2018-12-14T06:00:10.922Z,27.47
2018-12-14T06:02:39.972Z,24.83
2018-12-14T06:05:09.128Z,24.73
2018-12-14T06:07:38.365Z,22.03
2018-12-14T06:10:08.035Z,22.30
2018-12-14T06:12:37.303Z,20.83
2018-12-14T06:15:06.802Z,22.17
2018-12-14T06:17:35.769Z,21.07
2018-12-14T06:20:04.805Z,21.20
2018-12-14T06:22:33.739Z,20.97
2018-12-14T06:25:03.467Z,22.37
2018-12-14T06:27:32.480Z,22.97
2018-12-14T06:30:01.426Z,22.00
2018-12-14T06:32:30.380Z,21.97
2018-12-14T06:34:59.786Z,23.77
2018-12-14T06:37:28.854Z,24.07
2018-12-14T06:39:57.793Z,23.90
2018-12-14T06:42:26.806Z,24.47
2018-12-14T06:44:55.882Z,25.37
2018-12-14T06:47:24.975Z,26.40
2018-12-14T06:49:54.006Z,25.73
2018-12-14T06:52:22.971Z,26.00
2018-12-14T06:54:51.954Z,24.70
2018-12-14T06:57:20.957Z,25.17
2018-12-14T06:59:49.940Z,26.10
2018-12-14T07:02:18.912Z,24.90
2018-12-14T07:04:48.249Z,24.87
2018-12-14T07:07:17.329Z,22.63
2018-12-14T07:09:46.730Z,21.27
2018-12-14T07:12:20.635Z,20.37
2018-12-14T07:14:49.612Z,20.37
2018-12-14T07:17:18.599Z,19.80
2018-12-14T07:19:47.691Z,18.80
2018-12-14T07:22:16.615Z,19.57
2018-12-14T07:24:45.604Z,18.90
2018-12-14T07:27:14.591Z,19.87
2018-12-14T07:29:43.559Z,17.00
2018-12-14T07:32:12.603Z,16.20
2018-12-14T07:34:41.626Z,16.90
2018-12-14T07:37:10.626Z,18.57
2018-12-14T07:39:39.706Z,23.27
2018-12-14T07:42:08.688Z,28.67
2018-12-14T07:44:38.007Z,23.43
2018-12-14T07:47:11.686Z,23.03
2018-12-14T07:49:36.119Z,26.07
2018-12-14T07:52:05.149Z,22.83
2018-12-14T07:54:35.750Z,22.40
2018-12-14T07:57:04.909Z,23.70
2018-12-14T07:59:34.460Z,26.13
2018-12-14T08:02:03.584Z,28.60
2018-12-14T08:04:32.770Z,30.43
2018-12-14T08:07:02.089Z,30.00
2018-12-14T08:09:31.090Z,29.27
2018-12-14T08:12:00.205Z,29.17
2018-12-14T08:14:29.258Z,28.73
2018-12-14T08:16:58.215Z,29.87
2018-12-14T08:19:27.266Z,30.40
2018-12-14T08:21:57.635Z,26.40
2018-12-14T08:24:26.916Z,26.37
2018-12-14T08:26:56.989Z,26.30
2018-12-14T08:29:26.727Z,28.53
2018-12-14T08:31:56.843Z,26.13
2018-12-14T08:34:32.872Z,27.40
2018-12-14T08:37:17.875Z,26.87
2018-12-14T08:39:49.254Z,27.33
2018-12-14T08:42:25.230Z,28.63
2018-12-14T08:44:56.501Z,28.17
2018-12-14T08:47:27.729Z,29.17
2018-12-14T08:49:59.096Z,31.37
2018-12-14T08:52:30.553Z,32.23
2018-12-14T08:55:00.725Z,30.83
2018-12-14T08:57:33.097Z,29.97
2018-12-14T09:00:07.814Z,35.43
2018-12-14T09:02:42.074Z,30.67
2018-12-14T09:05:20.441Z,30.03
2018-12-14T09:07:57.948Z,30.97
2018-12-14T09:10:31.586Z,31.87
2018-12-14T09:13:03.031Z,31.90
2018-12-14T09:15:36.471Z,33.93
2018-12-14T09:18:06.336Z,32.93
2018-12-14T09:20:36.569Z,32.60
2018-12-14T09:23:11.513Z,31.07
2018-12-14T09:25:45.117Z,30.70
2018-12-14T09:28:17.330Z,30.90
2018-12-14T09:30:50.458Z,29.47
2018-12-14T09:33:26.500Z,27.87
2018-12-14T09:35:56.103Z,28.60
2018-12-14T09:38:26.961Z,27.30
2018-12-14T09:40:59.539Z,27.60
2018-12-14T09:43:31.319Z,27.10
2018-12-14T09:46:00.696Z,26.27
2018-12-14T09:48:31.616Z,26.20
2018-12-14T09:51:00.696Z,26.87
2018-12-14T09:53:34.360Z,27.20
2018-12-14T09:56:11.800Z,28.47
2018-12-14T09:58:45.683Z,25.73
2018-12-14T10:01:19.144Z,26.73
2018-12-14T10:03:52.325Z,27.80
2018-12-14T10:06:23.199Z,28.33
2018-12-14T10:08:52.673Z,26.50
2018-12-14T10:11:26.626Z,26.37
2018-12-14T10:14:00.814Z,25.40
2018-12-14T10:16:26.592Z,23.40
2018-12-14T10:18:56.495Z,23.03
2018-12-14T10:21:25.889Z,24.47
2018-12-14T10:23:55.700Z,24.77
2018-12-14T10:26:25.389Z,24.97
2018-12-14T10:28:54.569Z,25.33
2018-12-14T10:31:43.883Z,25.77
2018-12-14T10:34:13.214Z,26.70
2018-12-14T10:36:44.687Z,27.17
2018-12-14T10:39:23.088Z,25.27
2018-12-14T10:41:53.408Z,14.67
2018-12-14T10:44:24.556Z,15.80
2018-12-14T10:46:53.624Z,17.70
2018-12-14T10:49:22.657Z,16.77
2018-12-14T10:51:51.776Z,17.27
2018-12-14T10:54:20.865Z,18.07
2018-12-14T10:56:49.872Z,18.53
2018-12-14T10:59:18.880Z,18.00
2018-12-14T11:01:54.864Z,18.50
2018-12-14T11:04:24.021Z,18.63
2018-12-14T11:06:52.995Z,18.63
2018-12-14T11:09:21.965Z,18.97
2018-12-14T11:11:51.319Z,18.63
2018-12-14T11:14:20.293Z,18.87
2018-12-14T11:16:49.255Z,18.07
2018-12-14T11:19:18.807Z,18.37
2018-12-14T11:21:47.791Z,18.90
2018-12-14T11:24:16.831Z,19.50
2018-12-14T11:26:46.127Z,18.67
2018-12-14T11:29:15.219Z,19.20
2018-12-14T11:31:44.219Z,18.73
2018-12-14T11:34:13.348Z,18.83
2018-12-14T11:36:43.561Z,18.93
2018-12-14T11:39:12.664Z,19.63
2018-12-14T11:41:42.252Z,19.33
2018-12-14T11:44:11.221Z,19.53
2018-12-14T11:46:40.363Z,19.17
2018-12-14T11:49:12.125Z,18.93
2018-12-14T11:51:41.374Z,19.90
2018-12-14T11:54:11.029Z,19.83
2018-12-14T11:56:40.570Z,20.70
2018-12-14T11:59:10.123Z,25.80
2018-12-14T12:01:40.265Z,25.43
2018-12-14T12:04:09.744Z,26.10
2018-12-14T12:06:40.059Z,26.23
2018-12-14T12:09:12.667Z,26.73
2018-12-14T12:11:42.239Z,27.37
2018-12-14T12:14:11.861Z,28.23
2018-12-14T12:16:41.315Z,26.13
2018-12-14T12:19:11.346Z,27.50
2018-12-14T12:21:41.470Z,25.57
2018-12-14T12:24:11.325Z,26.70
2018-12-14T12:26:40.659Z,27.60
2018-12-14T12:29:10.337Z,27.53
2018-12-14T12:31:39.881Z,26.57
2018-12-14T12:34:09.100Z,26.97
2018-12-14T12:36:39.081Z,28.33
2018-12-14T12:39:10.315Z,28.23
2018-12-14T12:41:39.139Z,26.50
2018-12-14T12:44:08.927Z,26.10
2018-12-14T12:46:39.948Z,27.70
2018-12-14T12:49:10.708Z,27.37
2018-12-14T12:51:41.337Z,28.77
2018-12-14T12:54:10.886Z,28.57
2018-12-14T12:56:41.301Z,28.27
2018-12-14T12:59:11.536Z,29.27
2018-12-14T13:01:40.737Z,28.27
2018-12-14T13:04:10.788Z,29.23
2018-12-14T13:06:41.032Z,27.47
2018-12-14T13:09:10.476Z,29.93
2018-12-14T13:11:41.052Z,31.67
2018-12-14T13:14:11.420Z,31.63
2018-12-14T13:16:45.464Z,31.70
2018-12-14T13:19:15.045Z,28.63
2018-12-14T13:21:44.442Z,29.43
2018-12-14T13:24:14.823Z,30.13
2018-12-14T13:26:44.516Z,31.10
2018-12-14T13:29:13.792Z,31.33
2018-12-14T13:31:43.126Z,32.17
2018-12-14T13:34:12.419Z,31.97
2018-12-14T13:36:41.625Z,31.37
2018-12-14T13:39:11.098Z,29.60
2018-12-14T13:41:40.459Z,30.03
2018-12-14T13:44:10.199Z,27.03
2018-12-14T13:46:39.669Z,32.70
2018-12-14T13:49:08.910Z,30.07
2018-12-14T13:51:38.351Z,28.60
2018-12-14T13:54:08.009Z,26.63
2018-12-14T13:56:37.741Z,27.57
2018-12-14T13:59:07.166Z,25.57
2018-12-14T14:01:37.159Z,26.10
2018-12-14T14:04:06.503Z,25.93
2018-12-14T14:06:35.765Z,25.40
2018-12-14T14:09:05.626Z,28.87
2018-12-14T14:11:35.089Z,26.00
2018-12-14T14:14:04.664Z,25.87
2018-12-14T14:16:33.767Z,30.23
2018-12-14T14:19:04.745Z,27.37
2018-12-14T14:21:36.802Z,28.40
2018-12-14T14:24:06.337Z,27.40
2018-12-14T14:26:36.105Z,29.63
2018-12-14T14:29:06.305Z,28.67
2018-12-14T14:31:36.127Z,28.53
2018-12-14T14:34:05.285Z,27.70
2018-12-14T14:36:34.713Z,28.80
2018-12-14T14:39:05.556Z,29.13
2018-12-14T14:41:34.963Z,27.80
2018-12-14T14:44:04.249Z,27.77
2018-12-14T14:46:34.574Z,28.97
2018-12-14T14:49:04.566Z,31.73
2018-12-14T14:51:33.734Z,30.70
2018-12-14T14:54:03.299Z,33.90
2018-12-14T14:56:32.324Z,31.67
2018-12-14T14:59:01.583Z,32.50
2018-12-14T15:01:32.399Z,31.53
2018-12-14T15:04:01.633Z,31.17
2018-12-14T15:06:31.689Z,33.40
2018-12-14T15:09:01.350Z,31.07
2018-12-14T15:11:30.862Z,33.37
2018-12-14T15:14:01.698Z,33.03
2018-12-14T15:16:30.885Z,32.80
2018-12-14T15:18:59.982Z,32.20
2018-12-14T15:21:29.293Z,31.50
2018-12-14T15:23:59.232Z,31.70
2018-12-14T15:26:29.360Z,29.20
2018-12-14T15:28:58.555Z,31.90
2018-12-14T15:31:27.966Z,29.73
2018-12-14T15:33:57.730Z,29.07
2018-12-14T15:36:26.892Z,29.53
2018-12-14T15:38:58.330Z,28.67
2018-12-14T15:41:27.642Z,30.70
2018-12-14T15:43:56.818Z,29.83
2018-12-14T15:46:26.991Z,29.63
2018-12-14T15:48:56.178Z,29.80
2018-12-14T15:51:27.395Z,30.50
2018-12-14T15:53:57.098Z,17.93
2018-12-14T15:56:26.202Z,28.63
2018-12-14T15:58:55.262Z,27.63
2018-12-14T16:01:24.713Z,28.20
2018-12-14T16:03:54.930Z,29.03
2018-12-14T16:06:24.563Z,29.70
2018-12-14T16:08:53.823Z,29.10
2018-12-14T16:11:23.072Z,31.17
2018-12-14T16:13:52.618Z,29.73
2018-12-14T16:16:21.869Z,28.63
2018-12-14T16:18:51.081Z,30.23
2018-12-14T16:21:20.572Z,28.43
2018-12-14T16:23:49.653Z,29.90
2018-12-14T16:26:18.826Z,32.07
2018-12-14T16:28:48.173Z,29.23
2018-12-14T16:31:17.419Z,28.63
2018-12-14T16:33:46.661Z,30.47
2018-12-14T16:36:17.831Z,29.83
2018-12-14T16:38:47.958Z,29.17
2018-12-14T16:41:17.342Z,30.20
2018-12-14T16:43:46.546Z,28.40
2018-12-14T16:46:16.407Z,29.73
2018-12-14T16:48:46.698Z,31.47
2018-12-14T16:51:15.714Z,29.63
2018-12-14T16:53:50.861Z,31.90
2018-12-14T16:56:20.003Z,31.93
2018-12-14T16:58:49.686Z,34.47
2018-12-14T17:01:19.982Z,35.30
2018-12-14T17:03:49.174Z,37.60
2018-12-14T17:06:18.532Z,35.27
2018-12-14T17:08:48.723Z,41.23
2018-12-14T17:11:18.465Z,38.60
2018-12-14T17:13:48.285Z,40.80
2018-12-14T17:16:17.870Z,40.33
2018-12-14T17:18:47.279Z,39.27
2018-12-14T17:21:17.465Z,41.87
2018-12-14T17:23:47.288Z,40.07
2018-12-14T17:26:16.824Z,40.40
2018-12-14T17:28:46.047Z,40.70
2018-12-14T17:31:16.040Z,41.00
2018-12-14T17:33:45.510Z,43.73
2018-12-14T17:36:14.780Z,45.17
2018-12-14T17:38:44.122Z,43.87
2018-12-14T17:41:13.574Z,40.73
2018-12-14T17:43:42.950Z,38.27
2018-12-14T17:46:12.716Z,38.10
2018-12-14T17:48:43.330Z,37.30
2018-12-14T17:51:12.862Z,35.60
2018-12-14T17:53:42.551Z,37.73
2018-12-14T17:56:11.838Z,38.53
2018-12-14T17:58:41.297Z,36.90
2018-12-14T18:01:11.725Z,36.67
2018-12-14T18:03:40.890Z,34.97
2018-12-14T18:06:10.327Z,36.70
2018-12-14T18:08:39.755Z,35.37
2018-12-14T18:11:09.546Z,37.47
2018-12-14T18:13:38.989Z,37.83
2018-12-14T18:16:08.612Z,37.53
2018-12-14T18:18:38.726Z,36.83
2018-12-14T18:21:08.114Z,38.80
2018-12-14T18:23:38.070Z,43.97
2018-12-14T18:26:07.129Z,44.60
2018-12-14T18:28:36.500Z,41.30
2018-12-14T18:31:06.318Z,39.97
2018-12-14T18:33:35.903Z,40.17
2018-12-14T18:36:06.240Z,38.77
2018-12-14T18:38:35.535Z,40.13
2018-12-14T18:41:06.116Z,39.40
2018-12-14T18:43:35.663Z,41.73
2018-12-14T18:46:04.890Z,43.83
2018-12-14T18:48:34.711Z,43.50
2018-12-14T18:51:05.501Z,47.30
2018-12-14T18:53:37.795Z,44.47
2018-12-14T18:56:08.178Z,45.37
2018-12-14T18:58:37.649Z,44.60
2018-12-14T19:01:06.873Z,45.90
2018-12-14T19:03:36.665Z,42.97
2018-12-14T19:06:05.958Z,44.03
2018-12-14T19:08:35.982Z,44.70
2018-12-14T19:11:06.487Z,45.03
2018-12-14T19:13:35.665Z,46.30
2018-12-14T19:16:04.982Z,45.17
2018-12-14T19:18:34.638Z,42.50
2018-12-14T19:21:03.685Z,42.07
2018-12-14T19:23:33.814Z,44.90
2018-12-14T19:26:03.255Z,42.67
2018-12-14T19:28:32.508Z,46.33
2018-12-14T19:31:02.575Z,45.53
2018-12-14T19:33:32.499Z,43.83
2018-12-14T19:36:02.657Z,42.87
2018-12-14T19:38:31.883Z,45.17
2018-12-14T19:41:01.348Z,45.60
2018-12-14T19:43:30.821Z,48.83
2018-12-14T19:46:06.131Z,48.70
2018-12-14T19:48:29.854Z,45.00
2018-12-14T19:50:59.248Z,48.50
2018-12-14T19:53:28.420Z,45.53
2018-12-14T19:55:58.729Z,47.77
2018-12-14T19:58:27.816Z,46.10
2018-12-14T20:00:57.149Z,46.03
2018-12-14T20:03:26.475Z,45.07
2018-12-14T20:05:55.901Z,41.90
2018-12-14T20:08:25.070Z,42.70
2018-12-14T20:10:54.266Z,42.63
2018-12-14T20:13:23.466Z,46.30
2018-12-14T20:15:57.552Z,43.57
2018-12-14T20:18:22.858Z,43.93
2018-12-14T20:20:52.386Z,43.57
2018-12-14T20:23:21.917Z,42.87
2018-12-14T20:25:51.180Z,43.53
2018-12-14T20:28:20.635Z,43.80
2018-12-14T20:30:50.244Z,42.83
2018-12-14T20:33:19.226Z,43.30
2018-12-14T20:35:49.121Z,41.10
2018-12-14T20:38:18.366Z,43.60
2018-12-14T20:40:47.509Z,43.97
2018-12-14T20:43:17.645Z,43.47
2018-12-14T20:45:46.877Z,42.47
2018-12-14T20:48:17.034Z,42.70
2018-12-14T20:50:47.509Z,42.93
2018-12-14T20:53:17.236Z,44.10
2018-12-14T20:55:46.423Z,44.40
2018-12-14T20:58:16.701Z,44.63
2018-12-14T21:00:46.007Z,43.80
2018-12-14T21:03:15.235Z,41.83
2018-12-14T21:05:45.339Z,43.70
2018-12-14T21:08:15.874Z,41.73
2018-12-14T21:10:45.091Z,45.33
2018-12-14T21:13:15.545Z,41.67
2018-12-14T21:15:44.872Z,38.63
2018-12-14T21:18:14.041Z,41.23
2018-12-14T21:20:43.102Z,42.10
2018-12-14T21:23:12.380Z,41.20
2018-12-14T21:25:41.422Z,41.20
2018-12-14T21:28:10.459Z,39.80
2018-12-14T21:30:39.698Z,41.20
2018-12-14T21:33:09.520Z,42.23
2018-12-14T21:35:38.894Z,43.03
2018-12-14T21:38:09.028Z,41.73
2018-12-14T21:40:38.691Z,41.33
2018-12-14T21:43:08.063Z,41.43
2018-12-14T21:45:39.005Z,40.33
2018-12-14T21:48:08.145Z,43.80
2018-12-14T21:50:37.784Z,41.00
2018-12-14T21:53:14.267Z,39.57
2018-12-14T21:55:37.745Z,43.80
2018-12-14T21:58:07.163Z,41.63
2018-12-14T22:00:36.761Z,39.93
2018-12-14T22:03:05.908Z,42.80
2018-12-14T22:05:35.220Z,41.77
2018-12-14T22:08:05.033Z,41.70
2018-12-14T22:10:36.176Z,43.13
2018-12-14T22:13:05.367Z,41.90
2018-12-14T22:15:35.486Z,43.53
2018-12-14T22:18:04.885Z,43.13
2018-12-14T22:20:34.913Z,41.63
2018-12-14T22:23:04.326Z,43.07
2018-12-14T22:25:33.615Z,43.27
2018-12-14T22:28:02.689Z,42.63
2018-12-14T22:30:32.489Z,43.73
2018-12-14T22:33:02.296Z,42.50
2018-12-14T22:35:32.253Z,41.03
2018-12-14T22:38:02.409Z,44.47
2018-12-14T22:40:31.458Z,42.60
2018-12-14T22:43:01.245Z,43.63
2018-12-14T22:45:31.078Z,43.80
2018-12-14T22:48:00.261Z,45.90
2018-12-14T22:50:29.891Z,43.67
2018-12-14T22:53:00.435Z,44.50
2018-12-14T22:55:29.816Z,45.87
2018-12-14T22:57:59.315Z,46.43
2018-12-14T23:00:28.618Z,46.23
2018-12-14T23:02:59.363Z,44.90
2018-12-14T23:05:29.244Z,44.97
2018-12-14T23:07:58.361Z,44.60
2018-12-14T23:10:27.861Z,46.77
2018-12-14T23:12:57.110Z,44.83
2018-12-14T23:15:26.585Z,42.90
2018-12-14T23:17:55.895Z,44.43
2018-12-14T23:20:25.121Z,45.37
2018-12-14T23:22:54.671Z,42.13
2018-12-14T23:25:24.497Z,44.93
2018-12-14T23:27:55.117Z,45.07
2018-12-14T23:30:27.301Z,45.50
2018-12-14T23:32:56.904Z,44.33
2018-12-14T23:35:28.213Z,49.43
2018-12-14T23:37:57.272Z,46.70
2018-12-14T23:40:26.968Z,45.13
2018-12-14T23:42:57.337Z,47.37
2018-12-14T23:45:26.666Z,46.73
2018-12-14T23:47:56.003Z,45.53
2018-12-14T23:50:25.521Z,49.30
2018-12-14T23:52:56.874Z,46.53
2018-12-14T23:55:26.393Z,49.43
2018-12-14T23:57:57.272Z,51.53
